createdAt,value
2019-02-03T00:00:12.303Z,31.27
2019-02-03T00:02:42.836Z,22.07
2019-02-03T00:05:12.419Z,24.43
2019-02-03T00:07:40.925Z,21.53
2019-02-03T00:10:10.313Z,25.93
2019-02-03T00:12:38.861Z,29.27
2019-02-03T00:15:10.387Z,36.83
2019-02-03T00:17:38.971Z,30.40
2019-02-03T00:20:11.443Z,26.77
2019-02-03T00:22:40.312Z,23.77
2019-02-03T00:25:09.938Z,32.43
2019-02-03T00:27:38.418Z,30.37
2019-02-03T00:30:12.464Z,34.03
2019-02-03T00:32:40.994Z,29.20
2019-02-03T00:35:09.857Z,26.37
2019-02-03T00:37:38.370Z,26.90
2019-02-03T00:40:12.224Z,24.17
2019-02-03T00:42:40.703Z,22.97
2019-02-03T00:45:12.236Z,33.27
2019-02-03T00:47:41.087Z,33.13
2019-02-03T00:50:16.547Z,24.80
2019-02-03T00:52:44.977Z,23.80
2019-02-03T00:55:16.302Z,30.10
2019-02-03T00:57:44.877Z,28.20
2019-02-03T01:00:16.403Z,34.07
2019-02-03T01:02:45.015Z,30.47
2019-02-03T01:05:16.346Z,32.70
2019-02-03T01:07:45.084Z,33.43
2019-02-03T01:10:19.528Z,33.97
2019-02-03T01:12:48.271Z,32.37
2019-02-03T01:15:17.033Z,29.73
2019-02-03T01:17:45.536Z,26.50
2019-02-03T01:20:19.499Z,30.10
2019-02-03T01:22:48.441Z,33.20
2019-02-03T01:25:17.328Z,34.10
2019-02-03T01:27:46.064Z,29.67
2019-02-03T01:30:17.545Z,30.40
2019-02-03T01:32:46.026Z,31.90
2019-02-03T01:35:14.764Z,38.77
2019-02-03T01:37:43.224Z,32.67
2019-02-03T01:40:14.800Z,38.43
2019-02-03T01:42:43.280Z,39.43
2019-02-03T01:45:20.313Z,35.50
2019-02-03T01:47:48.806Z,40.00
2019-02-03T01:50:17.364Z,42.57
2019-02-03T01:52:46.072Z,39.60
2019-02-03T01:55:19.995Z,51.77
2019-02-03T01:57:50.246Z,44.33
2019-02-03T02:00:20.949Z,55.80
2019-02-03T02:02:49.485Z,50.33
2019-02-03T02:05:18.140Z,56.47
2019-02-03T02:07:51.678Z,61.20
2019-02-03T02:10:19.643Z,52.40
2019-02-03T02:12:48.110Z,50.00
2019-02-03T02:15:20.952Z,41.63
2019-02-03T02:17:50.260Z,70.40
2019-02-03T02:20:23.763Z,47.70
2019-02-03T02:22:52.385Z,61.20
2019-02-03T02:25:20.938Z,55.17
2019-02-03T02:27:49.469Z,58.63
2019-02-03T02:30:21.033Z,71.90
2019-02-03T02:32:49.502Z,60.63
2019-02-03T02:35:18.018Z,53.73
2019-02-03T02:37:48.222Z,53.00
2019-02-03T02:40:18.694Z,52.07
2019-02-03T02:42:47.201Z,54.93
2019-02-03T02:45:16.817Z,73.30
2019-02-03T02:47:45.348Z,55.87
2019-02-03T02:50:29.025Z,56.07
2019-02-03T02:52:57.506Z,57.40
2019-02-03T02:55:25.986Z,59.77
2019-02-03T02:57:54.477Z,59.63
2019-02-03T03:00:24.707Z,59.80
2019-02-03T03:02:53.305Z,68.10
2019-02-03T03:05:22.029Z,58.63
2019-02-03T03:07:50.890Z,56.43
2019-02-03T03:10:20.476Z,70.80
2019-02-03T03:12:49.820Z,54.00
2019-02-03T03:15:20.592Z,56.03
2019-02-03T03:17:49.513Z,48.63
2019-02-03T03:20:19.918Z,63.20
2019-02-03T03:22:50.240Z,61.57
2019-02-03T03:25:21.081Z,54.70
2019-02-03T03:27:49.934Z,50.40
2019-02-03T03:30:26.683Z,53.27
2019-02-03T03:32:55.273Z,53.07
2019-02-03T03:35:24.679Z,47.37
2019-02-03T03:37:53.215Z,61.60
2019-02-03T03:40:23.917Z,71.03
2019-02-03T03:42:52.561Z,61.53
2019-02-03T03:45:21.167Z,63.40
2019-02-03T03:47:49.786Z,55.57
2019-02-03T03:50:19.565Z,47.73
2019-02-03T03:52:48.122Z,47.27
2019-02-03T03:55:16.604Z,52.27
2019-02-03T03:57:45.363Z,52.03
2019-02-03T04:00:19.445Z,57.23
2019-02-03T04:02:48.650Z,57.13
2019-02-03T04:05:17.268Z,59.60
2019-02-03T04:07:45.827Z,52.70
2019-02-03T04:10:19.574Z,48.43
2019-02-03T04:12:49.362Z,47.17
2019-02-03T04:15:19.543Z,53.70
2019-02-03T04:17:48.657Z,52.80
2019-02-03T04:20:28.398Z,59.87
2019-02-03T04:22:56.912Z,69.57
2019-02-03T04:25:25.452Z,62.73
2019-02-03T04:27:53.950Z,62.73
2019-02-03T04:30:27.006Z,51.60
2019-02-03T04:32:56.772Z,58.53
2019-02-03T04:35:25.304Z,54.17
2019-02-03T04:37:53.798Z,67.97
2019-02-03T04:40:22.907Z,65.00
2019-02-03T04:42:51.512Z,59.23
2019-02-03T04:45:22.858Z,46.93
2019-02-03T04:47:50.486Z,52.47
2019-02-03T04:50:22.762Z,45.90
2019-02-03T04:52:51.253Z,52.20
2019-02-03T04:55:21.741Z,52.17
2019-02-03T04:57:50.223Z,68.63
2019-02-03T05:00:23.549Z,55.47
2019-02-03T05:02:52.108Z,51.47
2019-02-03T05:05:20.917Z,62.70
2019-02-03T05:07:49.482Z,39.77
2019-02-03T05:10:19.590Z,52.47
2019-02-03T05:12:48.217Z,49.90
2019-02-03T05:15:21.878Z,58.20
2019-02-03T05:17:50.980Z,63.00
2019-02-03T05:20:22.324Z,50.60
2019-02-03T05:22:50.804Z,72.47
2019-02-03T05:25:19.279Z,57.40
2019-02-03T05:27:47.768Z,68.50
2019-02-03T05:30:19.297Z,55.60
2019-02-03T05:32:47.783Z,51.33
2019-02-03T05:35:16.636Z,60.10
2019-02-03T05:37:45.138Z,75.30
2019-02-03T05:40:15.766Z,66.33
2019-02-03T05:42:44.228Z,61.17
2019-02-03T05:45:15.744Z,71.73
2019-02-03T05:47:44.254Z,52.87
2019-02-03T05:50:15.564Z,61.13
2019-02-03T05:52:44.198Z,54.00
2019-02-03T05:55:13.440Z,68.47
2019-02-03T05:57:42.591Z,56.87
2019-02-03T06:00:14.080Z,51.63
2019-02-03T06:02:43.051Z,56.13
2019-02-03T06:05:11.609Z,59.50
2019-02-03T06:07:40.088Z,56.93
2019-02-03T06:10:11.650Z,60.47
2019-02-03T06:12:40.180Z,59.10
2019-02-03T06:15:10.017Z,68.83
2019-02-03T06:17:38.570Z,55.93
2019-02-03T06:20:10.465Z,51.63
2019-02-03T06:22:38.946Z,57.70
2019-02-03T06:25:09.790Z,52.97
2019-02-03T06:27:38.268Z,73.27
2019-02-03T06:30:22.195Z,50.00
2019-02-03T06:32:51.018Z,53.73
2019-02-03T06:35:19.532Z,57.37
2019-02-03T06:37:47.994Z,50.87
2019-02-03T06:40:16.478Z,52.03
2019-02-03T06:42:44.970Z,45.93
2019-02-03T06:45:33.517Z,60.20
2019-02-03T06:48:01.992Z,66.93
2019-02-03T06:50:30.487Z,66.20
2019-02-03T06:53:01.156Z,72.20
2019-02-03T06:55:29.619Z,55.97
2019-02-03T06:57:58.108Z,55.13
2019-02-03T07:00:26.608Z,50.90
2019-02-03T07:02:55.098Z,59.23
2019-02-03T07:05:23.619Z,67.80
2019-02-03T07:07:52.081Z,63.27
2019-02-03T07:10:20.583Z,55.37
2019-02-03T07:12:49.063Z,48.73
2019-02-03T07:15:17.573Z,51.77
2019-02-03T07:17:46.031Z,60.03
2019-02-03T07:20:18.774Z,56.33
2019-02-03T07:22:47.259Z,47.80
2019-02-03T07:25:15.562Z,59.50
2019-02-03T07:27:44.119Z,57.83
2019-02-03T07:30:18.225Z,50.23
2019-02-03T07:32:46.710Z,70.07
2019-02-03T07:35:15.291Z,64.93
2019-02-03T07:37:43.765Z,58.23
2019-02-03T07:40:21.207Z,54.10
2019-02-03T07:42:49.683Z,55.93
2019-02-03T07:45:18.198Z,61.17
2019-02-03T07:47:47.076Z,60.33
2019-02-03T07:50:16.701Z,68.53
2019-02-03T07:52:45.445Z,52.77
2019-02-03T07:55:14.788Z,46.33
2019-02-03T07:57:43.630Z,55.30
2019-02-03T08:00:19.599Z,49.90
2019-02-03T08:02:48.212Z,57.40
2019-02-03T08:05:16.918Z,53.87
2019-02-03T08:07:45.457Z,48.13
2019-02-03T08:10:24.348Z,54.67
2019-02-03T08:12:46.470Z,49.07
2019-02-03T08:15:19.669Z,56.13
2019-02-03T08:17:48.154Z,44.83
2019-02-03T08:20:25.203Z,50.20
2019-02-03T08:22:53.747Z,45.87
2019-02-03T08:25:22.335Z,60.47
2019-02-03T08:27:50.811Z,56.33
2019-02-03T08:30:22.363Z,53.47
2019-02-03T08:32:50.845Z,43.90
2019-02-03T08:35:20.022Z,52.70
2019-02-03T08:37:48.670Z,41.83
2019-02-03T08:40:36.136Z,44.77
2019-02-03T08:42:55.942Z,55.27
2019-02-03T08:45:26.032Z,50.30
2019-02-03T08:47:54.498Z,61.40
2019-02-03T08:50:24.140Z,52.10
2019-02-03T08:52:52.979Z,48.80
2019-02-03T08:55:21.459Z,44.17
2019-02-03T08:57:49.939Z,48.03
2019-02-03T09:00:24.426Z,44.87
2019-02-03T09:02:52.911Z,73.63
2019-02-03T09:05:21.392Z,51.60
2019-02-03T09:07:50.141Z,51.37
2019-02-03T09:10:20.946Z,40.57
2019-02-03T09:12:49.436Z,60.87
2019-02-03T09:15:22.891Z,57.10
2019-02-03T09:17:51.551Z,42.87
2019-02-03T09:20:22.992Z,54.40
2019-02-03T09:22:51.483Z,49.83
2019-02-03T09:25:19.968Z,41.17
2019-02-03T09:27:48.479Z,38.17
2019-02-03T09:30:19.916Z,35.00
2019-02-03T09:32:48.412Z,40.87
2019-02-03T09:35:17.012Z,45.10
2019-02-03T09:37:45.581Z,46.37
2019-02-03T09:40:19.266Z,31.93
2019-02-03T09:42:48.008Z,31.30
2019-02-03T09:45:19.520Z,32.10
2019-02-03T09:47:48.296Z,36.80
2019-02-03T09:50:27.736Z,33.63
2019-02-03T09:52:57.967Z,37.03
2019-02-03T09:55:26.574Z,38.70
2019-02-03T09:57:55.214Z,41.47
2019-02-03T10:00:26.884Z,42.60
2019-02-03T10:02:56.722Z,46.83
2019-02-03T10:05:25.870Z,37.73
2019-02-03T10:07:54.513Z,40.50
2019-02-03T10:10:25.861Z,30.30
2019-02-03T10:12:54.804Z,25.93
2019-02-03T10:15:23.285Z,34.17
2019-02-03T10:17:51.789Z,38.57
2019-02-03T10:20:22.725Z,34.70
2019-02-03T10:22:51.289Z,32.33
2019-02-03T10:25:25.377Z,27.37
2019-02-03T10:27:53.936Z,25.97
2019-02-03T10:30:23.646Z,32.97
2019-02-03T10:32:52.283Z,42.27
2019-02-03T10:35:26.085Z,41.60
2019-02-03T10:37:54.926Z,30.40
2019-02-03T10:40:26.323Z,32.40
2019-02-03T10:42:57.164Z,44.17
2019-02-03T10:45:26.078Z,41.67
2019-02-03T10:47:54.567Z,26.63
2019-02-03T10:50:25.853Z,31.90
2019-02-03T10:52:54.901Z,38.17
2019-02-03T10:55:23.443Z,34.73
2019-02-03T10:57:51.933Z,40.47
2019-02-03T11:00:22.854Z,39.40
2019-02-03T11:02:51.501Z,36.47
2019-02-03T11:05:25.412Z,42.23
2019-02-03T11:07:54.421Z,47.77
2019-02-03T11:10:27.512Z,34.23
2019-02-03T11:12:55.996Z,28.97
2019-02-03T11:15:25.120Z,35.63
2019-02-03T11:17:53.950Z,33.00
2019-02-03T11:20:30.781Z,35.97
2019-02-03T11:22:59.426Z,33.53
2019-02-03T11:25:30.252Z,33.17
2019-02-03T11:27:58.902Z,37.90
2019-02-03T11:30:31.512Z,39.03
2019-02-03T11:33:05.327Z,37.30
2019-02-03T11:35:33.256Z,37.00
2019-02-03T11:38:03.628Z,30.53
2019-02-03T11:40:37.304Z,31.83
2019-02-03T11:43:07.152Z,32.97
2019-02-03T11:45:40.753Z,30.03
2019-02-03T11:48:15.337Z,28.43
2019-02-03T11:50:45.268Z,28.93
2019-02-03T11:53:22.534Z,24.97
2019-02-03T11:55:53.630Z,35.93
2019-02-03T11:58:21.552Z,34.80
2019-02-03T12:00:50.375Z,29.87
2019-02-03T12:03:19.036Z,31.20
2019-02-03T12:05:47.506Z,23.97
2019-02-03T12:08:16.091Z,31.23
2019-02-03T12:10:44.563Z,31.17
2019-02-03T12:13:13.133Z,35.73
2019-02-03T12:15:41.669Z,31.47
2019-02-03T12:18:10.260Z,29.60
2019-02-03T12:20:38.751Z,35.53
2019-02-03T12:23:07.472Z,29.57
2019-02-03T12:25:38.581Z,26.77
2019-02-03T12:28:07.866Z,27.13
2019-02-03T12:30:36.700Z,29.50
2019-02-03T12:33:07.101Z,29.37
2019-02-03T12:35:36.231Z,32.93
2019-02-03T12:38:05.460Z,26.60
2019-02-03T12:40:39.131Z,28.63
2019-02-03T12:43:07.841Z,29.60
2019-02-03T12:45:36.823Z,23.30
2019-02-03T12:48:07.148Z,21.17
2019-02-03T12:50:35.812Z,22.53
2019-02-03T12:53:04.916Z,27.87
2019-02-03T12:55:33.673Z,25.63
2019-02-03T12:58:02.158Z,33.10
2019-02-03T13:00:33.399Z,23.10
2019-02-03T13:03:01.935Z,27.57
2019-02-03T13:05:31.985Z,27.60
2019-02-03T13:08:01.561Z,31.80
2019-02-03T13:10:32.677Z,36.43
2019-02-03T13:13:01.422Z,25.77
2019-02-03T13:15:33.810Z,34.47
2019-02-03T13:18:02.429Z,29.70
2019-02-03T13:20:33.951Z,27.77
2019-02-03T13:23:03.151Z,27.53
2019-02-03T13:25:31.674Z,31.43
2019-02-03T13:28:00.125Z,29.07
2019-02-03T13:30:31.515Z,27.37
2019-02-03T13:33:00.078Z,30.60
2019-02-03T13:35:29.312Z,24.47
2019-02-03T13:37:57.852Z,29.50
2019-02-03T13:40:27.466Z,39.93
2019-02-03T13:42:55.945Z,20.80
2019-02-03T13:45:26.172Z,23.60
2019-02-03T13:47:58.070Z,23.50
2019-02-03T13:50:28.878Z,21.87
2019-02-03T13:52:57.789Z,29.23
2019-02-03T13:55:29.587Z,20.53
2019-02-03T13:57:58.050Z,23.77
2019-02-03T14:00:42.080Z,29.70
2019-02-03T14:03:12.131Z,23.30
2019-02-03T14:05:40.812Z,28.07
2019-02-03T14:08:09.999Z,27.23
2019-02-03T14:10:38.498Z,24.60
2019-02-03T14:13:08.813Z,20.23
2019-02-03T14:15:38.199Z,25.43
2019-02-03T14:18:07.014Z,22.13
2019-02-03T14:20:35.497Z,18.97
2019-02-03T14:23:05.580Z,18.90
2019-02-03T14:25:35.646Z,18.47
2019-02-03T14:28:04.498Z,25.40
2019-02-03T14:30:41.665Z,16.00
2019-02-03T14:33:10.281Z,20.93
2019-02-03T14:35:40.245Z,19.37
2019-02-03T14:38:08.939Z,20.53
2019-02-03T14:40:37.600Z,16.97
2019-02-03T14:43:06.179Z,17.53
2019-02-03T14:45:35.636Z,27.13
2019-02-03T14:48:04.675Z,21.70
2019-02-03T14:50:33.159Z,14.73
2019-02-03T14:53:04.609Z,18.07
2019-02-03T14:55:35.740Z,20.87
2019-02-03T14:58:04.873Z,21.83
2019-02-03T15:00:41.952Z,17.57
2019-02-03T15:03:13.712Z,15.50
2019-02-03T15:05:42.268Z,24.03
2019-02-03T15:08:10.747Z,15.60
2019-02-03T15:10:39.327Z,21.10
2019-02-03T15:13:14.003Z,19.53
2019-02-03T15:15:39.575Z,19.13
2019-02-03T15:18:09.623Z,18.00
2019-02-03T15:20:38.169Z,19.70
2019-02-03T15:23:08.202Z,16.73
2019-02-03T15:25:38.255Z,14.00
2019-02-03T15:28:10.537Z,23.53
2019-02-03T15:30:41.250Z,11.53
2019-02-03T15:33:09.826Z,24.37
2019-02-03T15:35:38.592Z,22.87
2019-02-03T15:38:07.921Z,16.33
2019-02-03T15:40:36.465Z,14.83
2019-02-03T15:43:06.866Z,21.47
2019-02-03T15:45:35.416Z,19.10
2019-02-03T15:48:04.268Z,17.90
2019-02-03T15:50:32.735Z,17.10
2019-02-03T15:53:01.301Z,14.03
2019-02-03T15:55:33.883Z,14.50
2019-02-03T15:58:02.701Z,21.20
2019-02-03T16:00:46.207Z,20.37
2019-02-03T16:03:14.760Z,15.30
2019-02-03T16:05:43.232Z,20.83
2019-02-03T16:08:13.422Z,16.03
2019-02-03T16:10:41.969Z,13.87
2019-02-03T16:13:10.880Z,17.47
2019-02-03T16:15:39.448Z,11.40
2019-02-03T16:18:08.577Z,20.30
2019-02-03T16:20:37.148Z,16.57
2019-02-03T16:23:07.122Z,12.37
2019-02-03T16:25:35.694Z,21.07
2019-02-03T16:28:04.982Z,14.83
2019-02-03T16:30:38.667Z,15.03
2019-02-03T16:33:09.668Z,13.67
2019-02-03T16:35:38.579Z,21.50
2019-02-03T16:38:07.800Z,15.47
2019-02-03T16:40:36.741Z,14.73
2019-02-03T16:43:05.662Z,15.23
2019-02-03T16:45:34.815Z,14.10
2019-02-03T16:48:03.268Z,18.83
2019-02-03T16:50:32.970Z,19.33
2019-02-03T16:53:06.374Z,13.30
2019-02-03T16:55:35.032Z,16.63
2019-02-03T16:58:03.803Z,20.00
2019-02-03T17:00:33.108Z,13.67
2019-02-03T17:03:01.985Z,15.17
2019-02-03T17:05:31.759Z,15.10
2019-02-03T17:08:04.425Z,14.13
2019-02-03T17:10:33.044Z,11.33
2019-02-03T17:13:01.532Z,16.43
2019-02-03T17:15:45.230Z,15.57
2019-02-03T17:18:14.495Z,13.50
2019-02-03T17:20:43.046Z,17.10
2019-02-03T17:23:11.605Z,17.13
2019-02-03T17:25:42.982Z,15.83
2019-02-03T17:28:12.030Z,13.60
2019-02-03T17:30:40.554Z,16.10
2019-02-03T17:33:09.243Z,12.60
2019-02-03T17:35:37.782Z,17.37
2019-02-03T17:38:06.339Z,17.73
2019-02-03T17:40:34.872Z,13.87
2019-02-03T17:43:03.911Z,16.30
2019-02-03T17:45:32.389Z,15.87
2019-02-03T17:48:01.214Z,19.60
2019-02-03T17:50:33.477Z,17.03
2019-02-03T17:53:02.148Z,16.67
2019-02-03T17:55:30.629Z,27.53
2019-02-03T17:57:59.510Z,19.87
2019-02-03T18:00:33.865Z,21.43
2019-02-03T18:03:02.417Z,15.50
2019-02-03T18:05:30.971Z,15.40
2019-02-03T18:08:00.312Z,16.37
2019-02-03T18:10:28.788Z,23.80
2019-02-03T18:12:57.295Z,17.37
2019-02-03T18:15:25.820Z,16.97
2019-02-03T18:17:55.245Z,15.27
2019-02-03T18:20:25.917Z,18.20
2019-02-03T18:22:54.410Z,12.87
2019-02-03T18:25:23.339Z,23.07
2019-02-03T18:27:52.388Z,16.63
2019-02-03T18:30:25.658Z,23.10
2019-02-03T18:32:55.809Z,14.63
2019-02-03T18:35:24.423Z,23.90
2019-02-03T18:37:54.606Z,16.27
2019-02-03T18:40:23.536Z,20.40
2019-02-03T18:42:52.184Z,13.07
2019-02-03T18:45:22.686Z,18.90
2019-02-03T18:47:51.340Z,22.63
2019-02-03T18:50:21.937Z,16.73
2019-02-03T18:52:50.794Z,12.63
2019-02-03T18:55:22.070Z,18.43
2019-02-03T18:57:50.627Z,19.00
2019-02-03T19:00:27.845Z,17.53
2019-02-03T19:02:56.400Z,18.67
2019-02-03T19:05:27.805Z,16.43
2019-02-03T19:07:56.294Z,14.97
2019-02-03T19:10:26.615Z,18.20
2019-02-03T19:12:55.076Z,18.10
2019-02-03T19:15:25.913Z,16.30
2019-02-03T19:17:55.778Z,14.87
2019-02-03T19:20:36.009Z,14.57
2019-02-03T19:23:05.581Z,10.90
2019-02-03T19:25:34.142Z,12.77
2019-02-03T19:28:02.770Z,14.53
2019-02-03T19:30:31.708Z,13.77
2019-02-03T19:33:00.184Z,23.07
2019-02-03T19:35:30.689Z,15.73
2019-02-03T19:37:59.192Z,12.43
2019-02-03T19:40:33.005Z,12.00
2019-02-03T19:43:01.488Z,20.17
2019-02-03T19:45:32.152Z,16.27
2019-02-03T19:48:00.797Z,11.00
2019-02-03T19:50:32.076Z,10.57
2019-02-03T19:53:00.643Z,13.83
2019-02-03T19:55:29.247Z,11.57
2019-02-03T19:57:59.066Z,12.10
2019-02-03T20:00:32.810Z,10.73
2019-02-03T20:03:01.428Z,9.53
2019-02-03T20:05:29.893Z,21.77
2019-02-03T20:07:58.583Z,15.03
2019-02-03T20:10:29.361Z,10.67
2019-02-03T20:12:57.829Z,8.70
2019-02-03T20:15:26.495Z,15.07
2019-02-03T20:17:57.877Z,11.93
2019-02-03T20:20:28.114Z,9.00
2019-02-03T20:22:56.653Z,10.10
2019-02-03T20:25:25.850Z,9.23
2019-02-03T20:27:54.327Z,11.33
2019-02-03T20:30:37.380Z,10.90
2019-02-03T20:32:55.458Z,10.10
2019-02-03T20:35:26.193Z,10.77
2019-02-03T20:37:54.880Z,8.50
2019-02-03T20:40:37.950Z,8.83
2019-02-03T20:43:06.493Z,8.93
2019-02-03T20:45:36.239Z,7.30
2019-02-03T20:48:05.169Z,8.23
2019-02-03T20:50:33.804Z,12.73
2019-02-03T20:53:02.263Z,6.87
2019-02-03T20:55:30.758Z,7.77
2019-02-03T20:57:59.223Z,6.63
2019-02-03T21:00:35.615Z,8.73
2019-02-03T21:03:04.783Z,8.33
2019-02-03T21:05:33.915Z,10.87
2019-02-03T21:08:02.384Z,6.47
2019-02-03T21:10:31.338Z,7.30
2019-02-03T21:13:10.796Z,9.97
2019-02-03T21:15:33.954Z,8.67
2019-02-03T21:18:01.472Z,9.63
2019-02-03T21:20:37.542Z,12.10
2019-02-03T21:23:06.931Z,8.50
2019-02-03T21:25:35.479Z,7.10
2019-02-03T21:28:05.958Z,7.63
2019-02-03T21:30:36.698Z,5.63
2019-02-03T21:33:06.739Z,8.97
2019-02-03T21:35:35.225Z,11.87
2019-02-03T21:38:03.768Z,6.20
2019-02-03T21:40:32.542Z,7.23
2019-02-03T21:43:01.153Z,6.90
2019-02-03T21:45:29.849Z,13.87
2019-02-03T21:47:59.468Z,5.87
2019-02-03T21:50:29.716Z,5.43
2019-02-03T21:52:58.746Z,7.10
2019-02-03T21:55:27.380Z,7.33
2019-02-03T21:57:55.919Z,7.13
2019-02-03T22:00:30.203Z,7.73
2019-02-03T22:03:00.791Z,10.87
2019-02-03T22:05:29.726Z,7.53
2019-02-03T22:07:58.351Z,10.57
2019-02-03T22:10:29.446Z,7.30
2019-02-03T22:12:59.066Z,5.37
2019-02-03T22:15:27.637Z,6.60
2019-02-03T22:17:57.736Z,5.93
2019-02-03T22:20:26.563Z,6.10
2019-02-03T22:22:55.131Z,7.37
2019-02-03T22:25:23.695Z,6.40
2019-02-03T22:27:52.607Z,6.00
2019-02-03T22:30:33.045Z,7.97
2019-02-03T22:33:01.487Z,5.30
2019-02-03T22:35:30.155Z,6.47
2019-02-03T22:37:58.611Z,6.67
2019-02-03T22:40:27.551Z,8.57
2019-02-03T22:42:56.077Z,5.57
2019-02-03T22:45:25.727Z,4.53
2019-02-03T22:47:54.428Z,6.53
2019-02-03T22:50:27.942Z,9.57
2019-02-03T22:52:58.433Z,7.07
2019-02-03T22:55:26.926Z,6.37
2019-02-03T22:57:55.518Z,5.67
2019-02-03T23:00:47.062Z,6.80
2019-02-03T23:03:16.144Z,14.00
2019-02-03T23:05:44.668Z,7.23
2019-02-03T23:08:13.193Z,7.70
2019-02-03T23:10:41.766Z,9.43
2019-02-03T23:13:10.251Z,7.20
2019-02-03T23:15:39.380Z,10.33
2019-02-03T23:18:08.271Z,6.40
2019-02-03T23:20:36.846Z,9.63
2019-02-03T23:23:05.312Z,6.03
2019-02-03T23:25:33.812Z,5.53
2019-02-03T23:28:02.271Z,4.70
2019-02-03T23:30:30.756Z,7.00
2019-02-03T23:32:59.599Z,6.73
2019-02-03T23:35:28.156Z,6.60
2019-02-03T23:37:56.634Z,11.37
2019-02-03T23:40:25.182Z,6.13
2019-02-03T23:42:53.702Z,6.63
2019-02-03T23:45:22.177Z,7.90
2019-02-03T23:47:51.612Z,7.47
2019-02-03T23:50:21.534Z,6.53
2019-02-03T23:52:50.015Z,5.80
2019-02-03T23:55:18.453Z,7.27
2019-02-03T23:57:46.929Z,6.80
